Time;durP1;ratioP1;P1;durP2;ratioP2;P2;SDS_P1;SDS_P2;PMS_P1;PMS_P2;Temp;Humidity;BMP_temperature;BMP_pressure;BME280_temperature;BME280_humidity;BME280_pressure;Samples;Min_cycle;Max_cycle;Signal;HPM_P1;HPM_P2
2021/12/03 00:02:10;;;;;;;2.07;0.70;;;1.10;96.10;;;;;;4846946;29;20045;-77
2021/12/03 00:04:38;;;;;;;2.53;0.80;;;1.00;96.10;;;;;;4830411;29;20045;-77
2021/12/03 00:07:05;;;;;;;2.70;0.90;;;1.10;96.10;;;;;;4844417;29;20058;-76
2021/12/03 00:09:35;;;;;;;1.93;0.87;;;1.10;96.10;;;;;;4818236;29;20137;-77
2021/12/03 00:12:04;;;;;;;3.03;1.53;;;1.10;96.10;;;;;;4846159;29;20057;-77
2021/12/03 00:14:33;;;;;;;4.03;1.50;;;1.10;96.10;;;;;;4852276;29;20487;-77
2021/12/03 00:17:01;;;;;;;5.17;2.13;;;1.10;96.10;;;;;;4861583;29;20038;-77
2021/12/03 00:19:29;;;;;;;2.87;1.33;;;1.10;96.20;;;;;;4845589;29;20148;-77
2021/12/03 00:21:56;;;;;;;2.40;1.40;;;1.10;96.10;;;;;;4827076;29;20129;-77
2021/12/03 00:24:23;;;;;;;4.03;1.30;;;1.10;96.10;;;;;;4858802;29;20065;-77
2021/12/03 00:26:50;;;;;;;2.13;1.10;;;1.10;96.10;;;;;;4828428;29;20057;-77
2021/12/03 00:29:17;;;;;;;3.03;1.17;;;1.10;96.10;;;;;;4838279;29;20108;-77
2021/12/03 00:31:44;;;;;;;3.00;1.17;;;1.10;96.10;;;;;;4843425;29;20057;-76
2021/12/03 00:34:11;;;;;;;2.37;1.23;;;1.00;96.10;;;;;;4828747;29;20085;-76
2021/12/03 00:36:39;;;;;;;2.67;1.33;;;1.00;96.10;;;;;;4832910;29;20594;-76
2021/12/03 00:39:07;;;;;;;4.57;1.20;;;1.00;96.10;;;;;;4828734;29;20559;-76
2021/12/03 00:41:41;;;;;;;2.50;1.20;;;1.00;96.10;;;;;;4830506;29;20122;-77
2021/12/03 00:44:08;;;;;;;3.53;1.40;;;1.00;96.20;;;;;;4843986;29;20073;-77
2021/12/03 00:46:35;;;;;;;2.30;1.10;;;1.00;96.10;;;;;;4815210;29;20046;-77
2021/12/03 00:49:02;;;;;;;2.73;1.30;;;1.00;96.10;;;;;;4829235;29;20106;-76
2021/12/03 00:51:29;;;;;;;2.33;1.27;;;1.00;96.20;;;;;;4831204;29;20056;-77
2021/12/03 00:53:59;;;;;;;3.43;1.53;;;1.00;96.20;;;;;;4830317;29;20512;-76
2021/12/03 00:56:26;;;;;;;11.57;3.00;;;1.00;96.20;;;;;;4831404;29;20073;-76
2021/12/03 00:58:53;;;;;;;3.53;1.60;;;1.00;96.20;;;;;;4846155;29;20118;-77
2021/12/03 01:01:20;;;;;;;2.77;1.30;;;1.00;96.20;;;;;;4851619;29;20053;-76
2021/12/03 01:03:48;;;;;;;2.80;1.30;;;1.00;96.20;;;;;;4849698;29;20049;-77
2021/12/03 01:06:15;;;;;;;3.27;1.80;;;1.00;96.20;;;;;;4845104;29;20041;-76
2021/12/03 01:08:42;;;;;;;4.43;2.10;;;1.00;96.20;;;;;;4852307;29;20064;-76
2021/12/03 01:11:13;;;;;;;3.77;1.60;;;1.00;96.20;;;;;;4830831;29;20054;-76
2021/12/03 01:13:42;;;;;;;4.03;2.43;;;1.00;96.20;;;;;;4845408;29;20120;-76
2021/12/03 01:16:11;;;;;;;3.97;2.10;;;1.00;96.20;;;;;;4846260;29;20045;-76
2021/12/03 01:18:40;;;;;;;6.07;2.53;;;1.00;96.20;;;;;;4844844;29;20122;-78
2021/12/03 01:21:09;;;;;;;4.13;2.50;;;1.00;96.20;;;;;;4836973;29;20053;-78
2021/12/03 01:23:38;;;;;;;4.27;2.47;;;1.00;96.20;;;;;;4831800;29;20064;-78
2021/12/03 01:26:06;;;;;;;4.37;2.63;;;1.00;96.20;;;;;;4824824;29;20074;-78
2021/12/03 01:28:33;;;;;;;4.17;2.50;;;1.00;96.20;;;;;;4847500;29;20050;-78
2021/12/03 01:31:05;;;;;;;4.55;2.70;;;1.00;96.20;;;;;;4837342;29;20081;-78
2021/12/03 01:33:33;;;;;;;7.27;3.17;;;1.00;96.20;;;;;;4821963;29;20038;-78
2021/12/03 01:36:00;;;;;;;4.80;3.03;;;1.00;96.20;;;;;;4865525;29;20106;-78
2021/12/03 01:38:27;;;;;;;5.63;2.50;;;1.00;96.20;;;;;;4828303;29;20080;-78
2021/12/03 01:40:54;;;;;;;5.10;2.80;;;1.00;96.20;;;;;;4812806;29;20138;-78
2021/12/03 01:43:23;;;;;;;5.73;2.97;;;1.00;96.20;;;;;;4828085;29;20053;-78
2021/12/03 01:45:53;;;;;;;4.73;2.77;;;1.00;96.20;;;;;;4844996;29;20053;-76
2021/12/03 01:48:20;;;;;;;4.67;2.47;;;1.00;96.20;;;;;;4846943;29;20144;-78
2021/12/03 01:50:49;;;;;;;3.97;2.37;;;1.00;96.20;;;;;;4845730;29;20176;-78
2021/12/03 01:53:20;;;;;;;4.23;2.40;;;1.00;96.20;;;;;;4859672;29;20117;-78
2021/12/03 01:55:49;;;;;;;3.93;2.13;;;1.10;96.20;;;;;;4843761;29;20053;-79
2021/12/03 01:58:17;;;;;;;3.33;1.97;;;1.10;96.20;;;;;;4858511;29;20132;-79
2021/12/03 02:00:53;;;;;;;3.73;1.80;;;1.10;96.20;;;;;;4843665;29;20061;-79
2021/12/03 02:03:24;;;;;;;3.93;1.90;;;1.10;96.20;;;;;;4866080;29;20050;-79
2021/12/03 02:05:52;;;;;;;3.30;1.50;;;1.10;96.20;;;;;;4844266;29;20050;-79
2021/12/03 02:08:22;;;;;;;2.53;1.40;;;1.10;96.20;;;;;;4827332;29;20066;-79
2021/12/03 02:10:50;;;;;;;4.17;1.30;;;1.10;96.20;;;;;;4839075;29;20049;-79
2021/12/03 02:13:17;;;;;;;4.07;1.60;;;1.10;96.20;;;;;;4840469;29;20490;-78
2021/12/03 02:15:46;;;;;;;4.70;1.67;;;1.10;96.20;;;;;;4841254;29;20049;-79
2021/12/03 02:18:15;;;;;;;3.67;1.50;;;1.20;96.20;;;;;;4843978;29;20069;-78
2021/12/03 02:20:47;;;;;;;2.70;1.20;;;1.20;96.20;;;;;;4850364;29;20058;-79
2021/12/03 02:23:15;;;;;;;2.03;1.00;;;1.20;96.20;;;;;;4839962;29;20110;-78
2021/12/03 02:25:43;;;;;;;2.07;1.00;;;1.30;96.30;;;;;;4838372;29;20038;-78
2021/12/03 02:28:10;;;;;;;2.40;1.37;;;1.30;96.30;;;;;;4829229;29;20136;-79
2021/12/03 02:30:38;;;;;;;3.33;1.53;;;1.30;96.30;;;;;;4812230;29;20077;-79
2021/12/03 02:33:05;;;;;;;3.93;1.67;;;1.30;96.20;;;;;;4828021;29;21444;-78
2021/12/03 02:35:32;;;;;;;3.23;1.70;;;1.30;96.20;;;;;;4845203;29;20069;-78
2021/12/03 02:37:59;;;;;;;2.93;1.73;;;1.40;96.20;;;;;;4829439;29;20058;-76
2021/12/03 02:40:26;;;;;;;3.63;1.57;;;1.40;96.20;;;;;;4847328;29;20111;-76
2021/12/03 02:42:54;;;;;;;4.63;2.67;;;1.40;96.20;;;;;;4815630;29;20133;-76
2021/12/03 02:45:22;;;;;;;4.17;2.63;;;1.40;96.20;;;;;;4843838;29;20034;-76
2021/12/03 02:47:49;;;;;;;5.30;3.00;;;1.40;96.20;;;;;;4829213;29;20149;-77
2021/12/03 02:50:18;;;;;;;4.30;2.50;;;1.40;96.10;;;;;;4848229;29;20076;-77
2021/12/03 02:52:48;;;;;;;9.10;3.30;;;1.40;96.20;;;;;;4863468;29;20114;-76
2021/12/03 02:55:15;;;;;;;6.37;3.57;;;1.40;96.10;;;;;;4848751;29;20144;-76
2021/12/03 02:57:43;;;;;;;6.00;3.20;;;1.40;96.10;;;;;;4830222;29;20148;-77
2021/12/03 03:00:14;;;;;;;6.45;4.05;;;1.40;96.10;;;;;;4845944;29;20456;-77
2021/12/03 03:02:41;;;;;;;7.23;4.00;;;1.40;96.10;;;;;;4841511;29;20050;-77
2021/12/03 03:05:14;;;;;;;6.43;3.50;;;1.40;96.10;;;;;;4828100;29;20046;-76
2021/12/03 03:07:42;;;;;;;6.20;3.17;;;1.50;96.10;;;;;;4845969;29;20457;-77
2021/12/03 03:10:14;;;;;;;6.77;3.53;;;1.40;96.10;;;;;;4830721;29;20066;-76
2021/12/03 03:12:42;;;;;;;6.38;3.35;;;1.40;96.10;;;;;;4868027;29;20670;-77
2021/12/03 03:15:11;;;;;;;6.63;3.87;;;1.40;96.10;;;;;;4846670;29;20443;-76
2021/12/03 03:17:41;;;;;;;6.30;3.83;;;1.50;96.10;;;;;;4869334;29;20042;-76
2021/12/03 03:20:09;;;;;;;6.10;3.50;;;1.50;96.10;;;;;;4843812;29;20050;-76
2021/12/03 03:22:41;;;;;;;4.67;2.70;;;1.50;96.10;;;;;;4846055;29;20057;-76
2021/12/03 03:25:12;;;;;;;8.20;3.20;;;1.50;96.20;;;;;;4829874;29;20430;-77
2021/12/03 03:27:41;;;;;;;5.97;2.72;;;1.50;96.40;;;;;;4845138;29;20557;-76
2021/12/03 03:30:12;;;;;;;4.83;3.17;;;1.50;96.10;;;;;;4854057;29;20265;-76
2021/12/03 03:32:40;;;;;;;9.13;4.77;;;1.50;96.10;;;;;;4847977;29;20053;-76
2021/12/03 03:35:08;;;;;;;9.53;5.93;;;1.50;96.10;;;;;;4857372;29;20507;-76
2021/12/03 03:37:35;;;;;;;9.02;5.60;;;1.50;96.10;;;;;;4827881;29;20682;-77
2021/12/03 03:40:04;;;;;;;8.60;5.70;;;1.50;96.10;;;;;;4846878;29;20592;-77
2021/12/03 03:42:33;;;;;;;10.17;5.67;;;1.50;96.10;;;;;;4848147;29;20436;-76
2021/12/03 03:45:02;;;;;;;9.20;5.37;;;1.60;96.10;;;;;;4848578;29;20114;-76
2021/12/03 03:47:30;;;;;;;6.97;4.40;;;1.60;96.10;;;;;;4862509;29;20033;-76
2021/12/03 03:49:57;;;;;;;9.33;5.30;;;1.60;96.10;;;;;;4858946;29;20107;-77
2021/12/03 03:52:24;;;;;;;12.17;6.07;;;1.70;96.10;;;;;;4833405;29;20061;-79
2021/12/03 03:54:51;;;;;;;14.07;7.73;;;1.70;96.10;;;;;;4831931;29;20065;-76
2021/12/03 03:57:20;;;;;;;10.63;6.87;;;1.80;96.10;;;;;;4829544;29;20057;-77
2021/12/03 03:59:47;;;;;;;10.93;7.47;;;1.80;96.10;;;;;;4846125;29;20042;-77
2021/12/03 04:02:14;;;;;;;11.87;7.77;;;1.80;96.00;;;;;;4852786;29;20045;-78
2021/12/03 04:04:41;;;;;;;16.87;10.50;;;1.80;96.00;;;;;;4842992;29;20399;-77
2021/12/03 04:07:09;;;;;;;16.67;9.63;;;1.90;96.00;;;;;;4853171;29;20071;-77
2021/12/03 04:09:35;;;;;;;14.87;9.40;;;1.90;96.00;;;;;;4827565;29;20054;-76
2021/12/03 04:12:05;;;;;;;15.33;9.10;;;1.90;96.00;;;;;;4831881;29;20190;-76
2021/12/03 04:14:32;;;;;;;15.17;9.47;;;1.90;96.00;;;;;;4831491;29;20097;-77
2021/12/03 04:16:59;;;;;;;15.73;10.07;;;1.90;96.00;;;;;;4831619;29;20391;-77
2021/12/03 04:19:26;;;;;;;14.13;9.00;;;1.90;96.00;;;;;;4846595;29;20582;-76
2021/12/03 04:21:53;;;;;;;15.57;10.53;;;2.00;96.00;;;;;;4845594;29;20687;-76
2021/12/03 04:24:20;;;;;;;17.43;10.77;;;2.00;96.00;;;;;;4829726;29;20130;-77
2021/12/03 04:26:47;;;;;;;16.70;9.77;;;2.00;95.90;;;;;;4853000;29;20460;-76
2021/12/03 04:29:14;;;;;;;16.83;9.47;;;2.00;95.90;;;;;;4832163;29;20106;-76
2021/12/03 04:31:44;;;;;;;17.63;10.80;;;2.00;96.00;;;;;;4846658;29;20053;-79
2021/12/03 04:34:11;;;;;;;17.40;11.20;;;2.10;96.00;;;;;;4834626;29;20050;-77
2021/12/03 04:36:41;;;;;;;20.43;12.00;;;2.10;96.00;;;;;;4845160;29;20879;-77
2021/12/03 04:39:12;;;;;;;21.30;12.43;;;2.10;95.90;;;;;;4844065;29;20053;-77
2021/12/03 04:41:39;;;;;;;22.33;11.50;;;2.10;95.90;;;;;;4846488;29;20046;-77
2021/12/03 04:44:07;;;;;;;30.07;15.73;;;2.10;95.90;;;;;;4829718;29;20046;-77
2021/12/03 04:46:34;;;;;;;25.57;15.37;;;2.10;95.90;;;;;;4832979;29;20046;-77
2021/12/03 04:49:01;;;;;;;25.37;14.77;;;2.20;95.90;;;;;;4828874;29;20141;-77
2021/12/03 04:51:31;;;;;;;22.47;14.23;;;2.20;95.90;;;;;;4830367;29;21226;-77
2021/12/03 04:53:58;;;;;;;30.00;16.37;;;2.20;95.90;;;;;;4844035;29;20045;-77
2021/12/03 04:56:25;;;;;;;26.80;15.23;;;2.20;95.90;;;;;;4845651;29;20054;-77
2021/12/03 04:58:53;;;;;;;31.97;17.27;;;2.20;96.10;;;;;;4816130;29;20106;-77
2021/12/03 05:01:20;;;;;;;32.63;16.10;;;2.20;95.90;;;;;;4829929;29;20061;-77
2021/12/03 05:03:47;;;;;;;30.73;17.07;;;2.20;95.90;;;;;;4846330;29;20124;-77
2021/12/03 05:06:16;;;;;;;28.23;13.53;;;2.30;95.90;;;;;;4828952;29;20403;-78
2021/12/03 05:08:44;;;;;;;29.83;13.53;;;2.30;95.90;;;;;;4831369;29;20053;-77
2021/12/03 05:11:13;;;;;;;34.05;15.90;;;2.30;95.90;;;;;;4830770;29;20057;-77
2021/12/03 05:13:40;;;;;;;31.40;13.85;;;2.30;95.90;;;;;;4849052;29;20057;-77
2021/12/03 05:16:07;;;;;;;33.43;16.17;;;2.30;95.90;;;;;;4845789;29;20057;-77
2021/12/03 05:18:34;;;;;;;33.17;15.67;;;2.30;95.80;;;;;;4844792;29;20563;-77
2021/12/03 05:21:03;;;;;;;31.47;14.30;;;2.30;95.80;;;;;;4829082;29;20065;-77
2021/12/03 05:23:32;;;;;;;28.47;11.97;;;2.30;95.90;;;;;;4842881;29;20080;-77
2021/12/03 05:25:59;;;;;;;28.43;13.13;;;2.30;95.90;;;;;;4846866;29;20417;-77
2021/12/03 05:28:28;;;;;;;32.33;14.97;;;2.30;95.90;;;;;;4837875;29;20521;-77
2021/12/03 05:30:56;;;;;;;35.20;15.47;;;2.40;95.90;;;;;;4830953;29;20057;-77
2021/12/03 05:33:23;;;;;;;42.60;19.03;;;2.40;95.90;;;;;;4846417;29;20096;-77
2021/12/03 05:35:51;;;;;;;37.43;17.00;;;2.40;95.80;;;;;;4826846;29;20099;-76
2021/12/03 05:38:18;;;;;;;39.30;16.67;;;2.40;95.80;;;;;;4827775;29;20117;-77
2021/12/03 05:40:46;;;;;;;33.30;16.70;;;2.40;95.80;;;;;;4830879;29;20063;-77
2021/12/03 05:43:16;;;;;;;34.15;14.10;;;2.40;95.80;;;;;;4850360;29;20525;-77
2021/12/03 05:45:44;;;;;;;36.60;14.77;;;2.50;95.90;;;;;;4827681;29;20097;-77
2021/12/03 05:48:13;;;;;;;35.17;12.95;;;2.50;95.90;;;;;;4843762;29;20065;-77
2021/12/03 05:50:41;;;;;;;28.42;12.13;;;2.50;95.90;;;;;;4842245;29;20064;-78
2021/12/03 05:53:08;;;;;;;30.93;13.37;;;2.50;95.90;;;;;;4844867;29;20045;-77
2021/12/03 05:55:35;;;;;;;36.73;15.43;;;2.50;95.90;;;;;;4838936;29;20065;-77
2021/12/03 05:58:02;;;;;;;39.30;16.17;;;2.50;95.80;;;;;;4843978;29;20062;-77
2021/12/03 06:00:33;;;;;;;39.07;16.90;;;2.60;95.80;;;;;;4837163;29;20392;-78
2021/12/03 06:03:00;;;;;;;47.80;20.17;;;2.60;95.80;;;;;;4843465;29;20041;-77
2021/12/03 06:05:28;;;;;;;38.70;17.67;;;2.60;95.80;;;;;;4841849;29;20149;-78
2021/12/03 06:07:56;;;;;;;36.73;17.07;;;2.60;95.80;;;;;;4828627;29;20494;-77
2021/12/03 06:10:24;;;;;;;39.03;17.67;;;2.60;95.80;;;;;;4841865;29;20034;-78
2021/12/03 06:12:51;;;;;;;37.70;15.63;;;2.70;95.80;;;;;;4841390;29;20125;-78
2021/12/03 06:15:19;;;;;;;34.33;15.43;;;2.70;95.80;;;;;;4827434;29;20045;-78
2021/12/03 06:17:47;;;;;;;29.53;13.40;;;2.70;95.80;;;;;;4827868;29;20593;-78
2021/12/03 06:20:17;;;;;;;31.33;12.73;;;2.70;95.80;;;;;;4846755;29;20410;-77
2021/12/03 06:22:45;;;;;;;31.60;14.02;;;2.70;95.80;;;;;;4841537;29;20495;-77
2021/12/03 06:25:18;;;;;;;30.90;14.87;;;2.70;95.80;;;;;;4861541;29;20456;-78
2021/12/03 06:27:46;;;;;;;31.80;13.83;;;2.80;95.80;;;;;;4843775;29;20038;-78
2021/12/03 06:30:16;;;;;;;34.03;14.93;;;2.80;95.80;;;;;;4842115;29;20042;-77
2021/12/03 06:32:56;;;;;;;40.90;17.97;;;2.70;95.80;;;;;;4842911;29;20054;-78
2021/12/03 06:35:24;;;;;;;32.43;14.63;;;2.80;95.80;;;;;;4844329;29;20045;-78
2021/12/03 06:37:51;;;;;;;41.53;16.47;;;2.80;95.80;;;;;;4841710;29;20058;-78
2021/12/03 06:40:22;;;;;;;34.60;14.23;;;2.80;95.80;;;;;;4828870;29;20380;-77
2021/12/03 06:42:49;;;;;;;34.53;13.43;;;2.80;95.80;;;;;;4842017;29;20046;-77
2021/12/03 06:45:16;;;;;;;32.30;12.40;;;2.80;95.80;;;;;;4826514;29;20038;-76
2021/12/03 06:47:44;;;;;;;32.33;14.17;;;2.90;95.80;;;;;;4851029;29;20499;-76
2021/12/03 06:50:16;;;;;;;35.70;15.00;;;2.90;95.80;;;;;;4845168;29;20073;-77
2021/12/03 06:52:48;;;;;;;33.78;14.45;;;2.90;95.80;;;;;;4842007;29;20054;-78
2021/12/03 06:55:16;;;;;;;32.08;13.20;;;2.90;95.80;;;;;;4864049;29;20050;-79
2021/12/03 06:57:44;;;;;;;32.40;15.50;;;2.90;95.80;;;;;;4849516;29;20779;-80
2021/12/03 07:00:15;;;;;;;34.67;13.67;;;3.00;95.80;;;;;;4831750;29;20050;-78
2021/12/03 07:02:42;;;;;;;38.28;16.40;;;3.00;95.80;;;;;;4843058;29;20042;-77
2021/12/03 07:05:10;;;;;;;38.42;16.20;;;3.00;95.80;;;;;;4850988;29;20053;-76
2021/12/03 07:07:41;;;;;;;38.08;16.33;;;3.00;95.70;;;;;;4842665;29;20152;-79
2021/12/03 07:10:09;;;;;;;37.20;16.95;;;3.00;95.70;;;;;;4844605;29;20068;-78
2021/12/03 07:12:36;;;;;;;34.28;15.23;;;3.00;95.70;;;;;;4846029;29;20050;-79
2021/12/03 07:15:07;;;;;;;34.50;15.85;;;3.00;95.70;;;;;;4843229;29;20061;-78
2021/12/03 07:17:34;;;;;;;35.20;16.35;;;3.00;95.70;;;;;;4844994;29;20068;-78
2021/12/03 07:20:06;;;;;;;35.60;14.77;;;3.00;95.70;;;;;;4852344;29;20098;-78
2021/12/03 07:22:34;;;;;;;28.90;13.00;;;2.90;95.70;;;;;;4825619;29;21354;-76
2021/12/03 07:25:02;;;;;;;25.70;12.15;;;2.90;95.70;;;;;;4813687;29;20102;-77
2021/12/03 07:27:30;;;;;;;34.15;13.02;;;2.90;95.70;;;;;;4817359;29;20058;-78
2021/12/03 07:29:57;;;;;;;28.98;13.25;;;2.90;95.70;;;;;;4839030;29;20050;-79
2021/12/03 07:32:29;;;;;;;26.70;14.65;;;2.90;95.70;;;;;;4847638;29;20045;-79
2021/12/03 07:34:57;;;;;;;32.33;14.73;;;2.90;95.80;;;;;;4831075;29;20050;-79
2021/12/03 07:37:30;;;;;;;30.83;13.85;;;2.90;95.70;;;;;;4840035;29;20069;-78
2021/12/03 07:40:03;;;;;;;28.15;14.35;;;3.00;95.80;;;;;;4827342;29;20134;-78
2021/12/03 07:42:31;;;;;;;27.50;13.07;;;2.90;95.70;;;;;;4842446;29;20050;-78
2021/12/03 07:44:58;;;;;;;27.77;12.90;;;2.90;95.70;;;;;;4844628;29;20060;-77
2021/12/03 07:47:26;;;;;;;27.25;13.63;;;2.90;95.70;;;;;;4843681;29;20073;-77
2021/12/03 07:49:53;;;;;;;29.08;13.02;;;2.90;95.70;;;;;;4845546;29;20129;-77
2021/12/03 07:52:21;;;;;;;25.67;11.88;;;3.00;95.70;;;;;;4815379;29;20081;-77
2021/12/03 07:54:48;;;;;;;23.90;11.93;;;3.00;95.70;;;;;;4842527;29;20056;-77
2021/12/03 07:57:15;;;;;;;27.75;11.82;;;3.00;95.70;;;;;;4844997;29;20638;-77
2021/12/03 07:59:43;;;;;;;26.38;10.88;;;3.00;95.60;;;;;;4848240;29;20069;-77
2021/12/03 08:02:11;;;;;;;18.75;9.10;;;3.00;95.60;;;;;;4828976;29;20053;-77
2021/12/03 08:04:38;;;;;;;18.42;9.65;;;3.00;95.60;;;;;;4847794;29;20372;-77
2021/12/03 08:07:05;;;;;;;18.10;9.90;;;3.00;95.60;;;;;;4845732;29;20494;-77
2021/12/03 08:09:32;;;;;;;18.85;9.45;;;3.00;95.50;;;;;;4845465;29;20058;-77
2021/12/03 08:11:59;;;;;;;18.20;8.65;;;3.00;95.50;;;;;;4829957;29;20136;-77
2021/12/03 08:14:27;;;;;;;19.67;7.78;;;3.00;95.50;;;;;;4846825;29;20125;-78
2021/12/03 08:16:54;;;;;;;16.10;6.97;;;3.00;95.50;;;;;;4831240;29;20064;-78
2021/12/03 08:19:21;;;;;;;15.45;6.53;;;3.10;95.50;;;;;;4812824;29;20061;-77
2021/12/03 08:21:48;;;;;;;14.35;6.82;;;3.10;95.50;;;;;;4829506;29;20042;-77
2021/12/03 08:24:15;;;;;;;12.48;5.75;;;3.10;95.40;;;;;;4846403;29;20046;-77
2021/12/03 08:26:42;;;;;;;12.30;5.72;;;3.10;95.40;;;;;;4832413;29;20137;-76
2021/12/03 08:29:10;;;;;;;13.85;6.18;;;3.10;95.40;;;;;;4845355;29;20049;-77
2021/12/03 08:31:39;;;;;;;8.90;4.70;;;3.10;95.30;;;;;;4831142;29;20054;-77
2021/12/03 08:34:06;;;;;;;9.40;4.45;;;3.10;95.30;;;;;;4842959;29;20105;-77
2021/12/03 08:36:33;;;;;;;8.23;4.40;;;3.20;95.30;;;;;;4843818;29;20087;-77
2021/12/03 08:39:01;;;;;;;9.75;5.30;;;3.20;95.20;;;;;;4849361;29;20046;-77
2021/12/03 08:41:28;;;;;;;10.55;4.57;;;3.20;95.10;;;;;;4867724;29;20071;-77
2021/12/03 08:43:55;;;;;;;8.15;4.35;;;3.20;95.10;;;;;;4828389;29;20057;-77
2021/12/03 08:46:28;;;;;;;7.78;3.83;;;3.20;95.10;;;;;;4843864;29;20565;-77
2021/12/03 08:49:04;;;;;;;7.50;4.80;;;3.20;95.10;;;;;;4821698;29;21221;-77
2021/12/03 08:51:49;;;;;;;11.23;4.50;;;3.30;95.10;;;;;;4826642;29;20170;-77
2021/12/03 08:57:04;;;;;;;10.18;4.28;;;3.30;95.00;;;;;;4832126;29;20086;-77
2021/12/03 08:59:31;;;;;;;9.73;4.68;;;3.30;94.90;;;;;;4843948;29;20852;-77
2021/12/03 09:01:58;;;;;;;15.00;4.97;;;3.30;94.90;;;;;;4842584;29;20053;-76
2021/12/03 09:04:25;;;;;;;9.10;4.40;;;3.30;94.80;;;;;;4828420;29;20046;-76
2021/12/03 09:06:52;;;;;;;8.27;4.07;;;3.30;94.80;;;;;;4827801;29;20049;-76
2021/12/03 09:09:19;;;;;;;9.65;3.40;;;3.30;94.80;;;;;;4843091;29;20053;-76
2021/12/03 09:11:46;;;;;;;6.78;3.35;;;3.40;94.80;;;;;;4828286;29;20049;-77
2021/12/03 09:16:50;;;;;;;11.27;4.93;;;3.40;94.80;;;;;;4857628;29;20140;-76
2021/12/03 09:19:48;;;;;;;8.98;4.45;;;3.50;94.70;;;;;;4832793;29;20094;-78
2021/12/03 09:22:27;;;;;;;11.73;5.07;;;3.50;94.70;;;;;;4835667;29;20110;-77
2021/12/03 09:24:54;;;;;;;10.57;4.03;;;3.50;94.60;;;;;;4830641;29;20109;-78
2021/12/03 09:27:21;;;;;;;8.10;3.22;;;3.50;94.60;;;;;;4814932;29;20582;-78
2021/12/03 09:29:51;;;;;;;10.95;4.20;;;3.60;94.70;;;;;;4827779;29;20553;-77
2021/12/03 09:32:23;;;;;;;8.73;2.75;;;3.60;94.50;;;;;;4841884;29;20061;-78
2021/12/03 09:34:50;;;;;;;6.93;3.70;;;3.60;94.50;;;;;;4844231;29;20058;-78
2021/12/03 09:37:18;;;;;;;6.43;2.83;;;3.60;94.60;;;;;;4830514;29;20046;-78
2021/12/03 09:39:45;;;;;;;10.13;3.90;;;3.60;94.50;;;;;;4842667;29;20090;-77
2021/12/03 09:42:15;;;;;;;9.93;3.47;;;3.70;94.40;;;;;;4849932;29;20077;-77
2021/12/03 09:44:44;;;;;;;9.52;3.42;;;3.70;94.40;;;;;;4829298;29;20101;-78
2021/12/03 09:47:14;;;;;;;9.20;3.22;;;3.70;94.40;;;;;;4841990;29;20146;-77
2021/12/03 09:49:54;;;;;;;12.50;3.72;;;3.70;94.30;;;;;;4841687;29;20572;-78
2021/12/03 09:55:02;;;;;;;9.07;2.90;;;3.70;94.20;;;;;;4846871;29;20058;-78
2021/12/03 09:57:37;;;;;;;7.93;2.63;;;3.80;94.20;;;;;;4840357;29;20060;-77
2021/12/03 10:09:50;;;;;;;6.95;2.78;;;3.80;94.10;;;;;;4839836;29;20106;-78
2021/12/03 10:14:49;;;;;;;11.15;2.83;;;3.80;94.00;;;;;;4842007;29;20061;-77
2021/12/03 10:20:21;;;;;;;9.60;3.15;;;3.90;93.80;;;;;;4844054;29;20050;-77
2021/12/03 10:26:26;;;;;;;6.03;2.00;;;3.90;93.70;;;;;;4842363;29;20118;-77
2021/12/03 10:29:06;;;;;;;5.93;2.20;;;3.90;93.70;;;;;;4841711;29;20102;-77
2021/12/03 10:43:48;;;;;;;6.65;2.10;;;3.90;93.60;;;;;;4842122;29;20050;-77
2021/12/03 10:51:59;;;;;;;5.10;1.80;;;4.00;93.60;;;;;;4843624;29;19968;-77
2021/12/03 12:10:47;;;;;;;8.77;3.20;;;4.60;93.30;;;;;;4852492;29;20050;-81
2021/12/03 12:30:52;;;;;;;8.10;3.50;;;4.80;93.10;;;;;;4841239;29;20054;-78
2021/12/03 12:42:30;;;;;;;8.68;3.35;;;5.00;93.00;;;;;;4833718;29;20124;-79
2021/12/03 13:58:32;;;;;;;5.43;2.42;;;5.10;91.80;;;;;;4845567;29;20439;-81
2021/12/03 14:35:41;;;;;;;5.53;1.60;;;5.00;92.00;;;;;;4856544;29;20046;-78
2021/12/03 14:42:27;;;;;;;4.35;1.77;;;4.90;92.20;;;;;;4847139;29;20384;-78
2021/12/03 14:55:57;;;;;;;4.45;1.75;;;4.60;92.60;;;;;;4863413;29;20058;-78
2021/12/03 15:04:03;;;;;;;5.90;2.22;;;4.50;92.80;;;;;;4824618;29;20074;-77
2021/12/03 15:06:36;;;;;;;3.35;2.00;;;4.50;92.90;;;;;;4846163;29;20424;-77
2021/12/03 15:09:27;;;;;;;4.18;1.63;;;4.50;93.10;;;;;;4819069;29;20169;-78
2021/12/03 15:26:26;;;;;;;3.25;1.52;;;4.40;93.30;;;;;;4845179;29;20125;-78
2021/12/03 15:31:56;;;;;;;5.78;1.90;;;4.40;93.40;;;;;;4848207;29;20061;-79
2021/12/03 16:06:55;;;;;;;5.50;3.05;;;4.40;94.10;;;;;;4849106;29;20064;-80
2021/12/03 16:44:46;;;;;;;5.63;3.08;;;4.40;94.50;;;;;;4854491;29;20494;-79
2021/12/03 16:52:49;;;;;;;6.00;4.00;;;4.50;94.60;;;;;;4836254;29;20050;-78
2021/12/03 16:55:18;;;;;;;6.22;4.18;;;4.50;94.60;;;;;;4831405;29;20098;-77
2021/12/03 16:57:51;;;;;;;5.63;3.53;;;4.50;94.70;;;;;;4840490;29;20046;-79
2021/12/03 17:00:28;;;;;;;6.82;3.85;;;4.50;94.70;;;;;;4851271;29;20082;-78
2021/12/03 17:03:03;;;;;;;8.55;4.10;;;4.50;94.70;;;;;;4833355;29;20052;-80
2021/12/03 18:00:04;;;;;;;6.00;4.28;;;4.70;95.10;;;;;;4840537;29;20082;-78
2021/12/03 18:02:42;;;;;;;5.20;3.90;;;4.70;95.10;;;;;;4840879;29;20054;-79
2021/12/03 18:13:11;;;;;;;5.28;3.60;;;4.80;95.10;;;;;;4834281;29;20046;-83
2021/12/03 18:16:13;;;;;;;6.80;3.42;;;4.90;95.30;;;;;;4829633;29;20054;-82
2021/12/03 18:19:06;;;;;;;5.50;3.92;;;4.90;95.00;;;;;;4841181;29;20052;-85
2021/12/03 18:47:45;;;;;;;4.40;3.33;;;4.80;95.20;;;;;;4844182;29;20144;-84
2021/12/03 18:53:12;;;;;;;5.63;4.15;;;4.80;95.20;;;;;;4848855;29;20444;-84
2021/12/03 18:55:48;;;;;;;4.75;4.03;;;4.80;95.20;;;;;;4854426;29;20104;-83
2021/12/03 18:58:15;;;;;;;6.32;5.13;;;4.80;95.20;;;;;;4855575;29;20057;-79
2021/12/03 19:00:45;;;;;;;6.63;5.00;;;4.80;95.20;;;;;;4845661;29;20050;-80
2021/12/03 19:03:36;;;;;;;7.40;4.72;;;4.80;95.20;;;;;;4861536;29;20201;-80
2021/12/03 19:08:36;;;;;;;7.40;6.40;;;4.80;95.20;;;;;;4848760;29;20132;-86
2021/12/03 19:13:46;;;;;;;8.25;6.57;;;4.90;95.30;;;;;;4826011;29;20058;-91
2021/12/03 19:16:17;;;;;;;8.48;6.18;;;4.80;95.20;;;;;;4826297;29;20110;-88
2021/12/03 19:18:52;;;;;;;11.80;8.85;;;4.80;95.20;;;;;;4842335;29;20414;-86
2021/12/03 19:21:27;;;;;;;11.13;8.50;;;4.90;95.30;;;;;;4829756;29;20083;-90
2021/12/03 19:23:58;;;;;;;9.00;6.95;;;4.80;95.20;;;;;;4844837;29;20229;-87
2021/12/03 19:26:27;;;;;;;9.52;8.07;;;4.80;95.30;;;;;;4842108;29;20053;-85
2021/12/03 19:29:00;;;;;;;8.38;7.10;;;4.80;95.30;;;;;;4841001;29;20052;-84
2021/12/03 19:31:29;;;;;;;8.60;6.80;;;4.80;95.30;;;;;;4827496;29;20050;-87
2021/12/03 19:33:57;;;;;;;9.18;7.50;;;4.80;95.30;;;;;;4829170;29;20092;-88
2021/12/03 19:36:32;;;;;;;7.93;6.88;;;4.80;95.30;;;;;;4829058;29;20057;-86
2021/12/03 19:39:02;;;;;;;7.07;5.78;;;4.80;95.30;;;;;;4815985;29;20050;-85
2021/12/03 19:44:00;;;;;;;7.50;5.93;;;4.90;95.40;;;;;;4816686;29;20434;-87
2021/12/03 19:46:33;;;;;;;6.55;5.20;;;4.90;95.40;;;;;;4852408;29;20459;-87
2021/12/03 19:56:00;;;;;;;6.28;4.72;;;4.90;95.40;;;;;;4859176;29;20037;-87
2021/12/03 19:58:27;;;;;;;7.60;5.88;;;4.80;95.40;;;;;;4824565;29;20038;-85
2021/12/03 20:00:56;;;;;;;8.32;6.03;;;4.90;95.40;;;;;;4828017;29;20129;-87
2021/12/03 20:03:56;;;;;;;9.32;6.80;;;4.80;95.40;;;;;;4814323;29;20571;-90
2021/12/03 20:06:26;;;;;;;7.88;6.50;;;4.80;95.40;;;;;;4865728;29;20074;-84
2021/12/03 20:09:01;;;;;;;8.60;6.85;;;4.80;95.40;;;;;;4853714;29;20058;-88
2021/12/03 20:12:35;;;;;;;8.32;6.68;;;4.80;95.40;;;;;;4843840;29;20042;-85
2021/12/03 20:15:11;;;;;;;9.38;7.25;;;4.90;95.50;;;;;;4842417;29;20388;-90
2021/12/03 20:17:46;;;;;;;7.88;6.85;;;4.80;95.40;;;;;;4828515;29;20152;-86
2021/12/03 20:21:13;;;;;;;8.18;6.55;;;4.80;95.50;;;;;;4836355;29;20480;-89
2021/12/03 20:28:05;;;;;;;7.50;5.35;;;4.90;95.50;;;;;;4852852;29;20478;-88
2021/12/03 20:30:45;;;;;;;6.68;5.65;;;4.80;95.50;;;;;;4850623;29;20046;-89
2021/12/03 20:36:58;;;;;;;7.25;5.50;;;4.80;95.50;;;;;;4858592;29;20049;-88
2021/12/03 20:39:38;;;;;;;6.28;5.07;;;4.90;95.50;;;;;;4860729;29;20061;-86
2021/12/03 21:09:26;;;;;;;8.15;6.05;;;4.90;95.60;;;;;;4821192;29;20102;-84
2021/12/03 21:11:58;;;;;;;7.45;5.00;;;4.90;95.60;;;;;;4829033;29;20115;-84
2021/12/03 21:14:29;;;;;;;6.57;4.65;;;4.90;95.60;;;;;;4834590;29;20137;-83
2021/12/03 21:17:05;;;;;;;8.97;6.10;;;4.90;95.70;;;;;;4827161;29;20129;-84
2021/12/03 21:26:47;;;;;;;6.28;4.43;;;5.00;95.70;;;;;;4848018;29;20059;-82
2021/12/03 21:42:14;;;;;;;5.78;4.40;;;5.00;95.70;;;;;;4852254;29;20052;-87
2021/12/03 21:44:44;;;;;;;7.95;6.03;;;5.00;95.60;;;;;;4831618;29;20137;-87
2021/12/03 21:47:12;;;;;;;8.80;6.68;;;5.00;95.60;;;;;;4846353;29;20846;-86
2021/12/03 21:49:39;;;;;;;8.52;5.95;;;5.00;95.60;;;;;;4844764;29;20117;-90
2021/12/03 21:52:06;;;;;;;6.63;5.15;;;5.00;95.70;;;;;;4832662;29;20594;-87
2021/12/03 21:54:35;;;;;;;7.35;5.35;;;5.00;95.70;;;;;;4816269;29;20507;-87